Time,TemperatureF,DewpointF,PressureIn,WindDirection,WindDirectionDegrees,WindSpeedMPH,WindSpeedGustMPH,Humidity,HourlyPrecipIn,Conditions,Clouds,dailyrainin,SolarRadiationWatts/m^2,SoftwareType,DateUTC
2013-07-25 00:02:00,73.0,68.0,-100.00,North,7,6.0,7.0,83,0.00,,,0.40,0.000000,,2013-07-25 05:02:00,
2013-07-25 00:32:00,72.0,65.0,-100.00,North,2,5.0,7.0,80,0.00,,,0.38,0.000000,,2013-07-25 05:32:00,
2013-07-25 00:43:00,72.0,65.0,-100.00,North,2,5.0,7.0,80,0.00,,,0.38,0.000000,,2013-07-25 05:43:00,
2013-07-25 00:52:00,72.0,65.0,-100.00,North,2,5.0,7.0,80,0.00,,,0.38,0.000000,,2013-07-25 05:52:00,
2013-07-25 01:02:00,72.0,65.0,-100.00,North,2,5.0,7.0,80,0.00,,,0.38,0.000000,,2013-07-25 06:02:00,
2013-07-25 01:32:00,71.0,66.0,-100.00,WNW,298,1.0,5.0,83,0.00,,,0.34,0.000000,,2013-07-25 06:32:00,
2013-07-25 01:42:00,71.0,66.0,-100.00,WNW,298,1.0,5.0,83,0.00,,,0.34,0.000000,,2013-07-25 06:42:00,
2013-07-25 01:52:00,71.0,66.0,-100.00,WNW,298,1.0,5.0,83,0.00,,,0.34,0.000000,,2013-07-25 06:52:00,
2013-07-25 02:02:00,71.0,66.0,-100.00,WNW,298,1.0,5.0,83,0.00,,,0.34,0.000000,,2013-07-25 07:02:00,
2013-07-25 02:33:00,70.0,68.0,-100.00,NE,46,0.0,4.0,92,0.00,,,0.30,0.000000,,2013-07-25 07:33:00,
2013-07-25 02:43:00,70.0,68.0,-100.00,NE,46,0.0,4.0,92,0.00,,,0.30,0.000000,,2013-07-25 07:43:00,
2013-07-25 02:53:00,70.0,68.0,-100.00,NE,46,0.0,4.0,92,0.00,,,0.30,0.000000,,2013-07-25 07:53:00,
2013-07-25 03:02:00,70.0,68.0,-100.00,NE,46,0.0,4.0,92,0.00,,,0.30,0.000000,,2013-07-25 08:02:00,
2013-07-25 03:32:00,70.0,68.0,-100.00,NE,43,2.0,3.0,93,0.00,,,0.20,0.000000,,2013-07-25 08:32:00,
2013-07-25 03:44:00,70.0,68.0,-100.00,NE,43,2.0,3.0,93,0.00,,,0.20,0.000000,,2013-07-25 08:44:00,
2013-07-25 03:52:00,70.0,68.0,-100.00,NE,43,2.0,3.0,93,0.00,,,0.20,0.000000,,2013-07-25 08:52:00,
2013-07-25 04:02:00,70.0,68.0,-100.00,NE,43,2.0,3.0,93,0.00,,,0.20,0.000000,,2013-07-25 09:02:00,
2013-07-25 04:33:00,71.0,67.0,-100.00,ENE,63,2.0,5.0,87,0.00,,,0.07,0.000000,,2013-07-25 09:33:00,
2013-07-25 04:43:00,71.0,67.0,-100.00,ENE,63,2.0,5.0,87,0.00,,,0.07,0.000000,,2013-07-25 09:43:00,
2013-07-25 04:53:00,71.0,67.0,-100.00,ENE,63,2.0,5.0,87,0.00,,,0.07,0.000000,,2013-07-25 09:53:00,
2013-07-25 05:02:00,71.0,67.0,-100.00,ENE,63,2.0,5.0,87,0.00,,,0.07,0.000000,,2013-07-25 10:02:00,
2013-07-25 05:32:00,70.0,67.0,-100.00,SE,131,1.0,5.0,90,0.00,,,0.01,0.000000,,2013-07-25 10:32:00,
2013-07-25 05:43:00,70.0,67.0,-100.00,SE,131,1.0,5.0,90,0.00,,,0.01,0.000000,,2013-07-25 10:43:00,
2013-07-25 05:53:00,70.0,67.0,-100.00,SE,131,1.0,5.0,90,0.00,,,0.01,0.000000,,2013-07-25 10:53:00,
2013-07-25 06:02:00,70.0,67.0,-100.00,SE,131,1.0,5.0,90,0.00,,,0.01,0.000000,,2013-07-25 11:02:00,
2013-07-25 06:32:00,68.0,66.0,-100.00,ENE,58,3.0,7.0,93,0.00,,,0.00,0.000000,,2013-07-25 11:32:00,
2013-07-25 06:43:00,68.0,66.0,-100.00,ENE,58,3.0,7.0,93,0.00,,,0.00,0.000000,,2013-07-25 11:43:00,
2013-07-25 06:52:00,68.0,66.0,-100.00,ENE,58,3.0,7.0,93,0.00,,,0.00,0.000000,,2013-07-25 11:52:00,
2013-07-25 07:02:00,68.0,66.0,-100.00,ENE,58,3.0,7.0,93,0.00,,,0.00,0.000000,,2013-07-25 12:02:00,
2013-07-25 07:32:00,71.0,68.0,-100.00,SE,127,4.0,7.0,91,0.00,,,0.00,37.000000,,2013-07-25 12:32:00,
2013-07-25 07:45:00,71.0,68.0,-100.00,SE,127,4.0,7.0,91,0.00,,,0.00,37.000000,,2013-07-25 12:45:00,
2013-07-25 07:53:00,71.0,68.0,-100.00,SE,127,4.0,7.0,91,0.00,,,0.00,37.000000,,2013-07-25 12:53:00,
2013-07-25 08:02:00,71.0,68.0,-100.00,SE,127,4.0,7.0,91,0.00,,,0.00,37.000000,,2013-07-25 13:02:00,
2013-07-25 08:33:00,70.0,67.0,-100.00,SSE,166,5.0,8.0,90,0.00,,,0.00,96.000000,,2013-07-25 13:33:00,
2013-07-25 08:43:00,70.0,67.0,-100.00,SSE,166,5.0,8.0,90,0.00,,,0.00,96.000000,,2013-07-25 13:43:00,
2013-07-25 08:53:00,70.0,67.0,-100.00,SSE,166,5.0,8.0,90,0.00,,,0.00,96.000000,,2013-07-25 13:53:00,
2013-07-25 09:02:00,70.0,67.0,-100.00,SSE,166,5.0,8.0,90,0.00,,,0.00,96.000000,,2013-07-25 14:02:00,
2013-07-25 09:33:00,72.0,68.0,-100.00,SSE,149,5.0,8.0,88,0.00,,,0.00,212.000000,,2013-07-25 14:33:00,
2013-07-25 09:43:00,72.0,68.0,-100.00,SSE,149,5.0,8.0,88,0.00,,,0.00,212.000000,,2013-07-25 14:43:00,
2013-07-25 09:53:00,72.0,68.0,-100.00,SSE,149,5.0,8.0,88,0.00,,,0.00,212.000000,,2013-07-25 14:53:00,
2013-07-25 10:02:00,72.0,68.0,-100.00,SSE,149,5.0,8.0,88,0.00,,,0.00,212.000000,,2013-07-25 15:02:00,
2013-07-25 10:32:00,75.0,67.0,-100.00,SSE,164,5.0,7.0,75,0.00,,,0.00,612.000000,,2013-07-25 15:32:00,
2013-07-25 10:44:00,75.0,67.0,-100.00,SSE,164,5.0,7.0,75,0.00,,,0.00,612.000000,,2013-07-25 15:44:00,
2013-07-25 10:53:00,75.0,67.0,-100.00,SSE,164,5.0,7.0,75,0.00,,,0.00,612.000000,,2013-07-25 15:53:00,
2013-07-25 11:02:00,75.0,67.0,-100.00,SSE,164,5.0,7.0,75,0.00,,,0.00,612.000000,,2013-07-25 16:02:00,
2013-07-25 11:33:00,74.0,67.0,-100.00,SSE,167,7.0,9.0,78,0.00,,,0.00,628.000000,,2013-07-25 16:33:00,
2013-07-25 11:45:00,74.0,67.0,-100.00,SSE,167,7.0,9.0,78,0.00,,,0.00,628.000000,,2013-07-25 16:45:00,
2013-07-25 11:53:00,74.0,67.0,-100.00,SSE,167,7.0,9.0,78,0.00,,,0.00,628.000000,,2013-07-25 16:53:00,
2013-07-25 12:03:00,74.0,67.0,-100.00,SSE,167,7.0,9.0,78,0.00,,,0.00,628.000000,,2013-07-25 17:03:00,
2013-07-25 12:32:00,76.0,69.0,-100.00,SSE,162,6.0,10.0,79,0.00,,,-99.99,817.000000,,2013-07-25 17:32:00,
2013-07-25 12:43:00,76.0,69.0,-100.00,SSE,162,6.0,10.0,79,0.00,,,-99.99,817.000000,,2013-07-25 17:43:00,
2013-07-25 12:53:00,76.0,69.0,-100.00,SSE,162,6.0,10.0,79,0.00,,,-99.99,817.000000,,2013-07-25 17:53:00,
2013-07-25 13:02:00,76.0,69.0,-100.00,SSE,162,6.0,10.0,79,0.00,,,-99.99,817.000000,,2013-07-25 18:02:00,
2013-07-25 13:33:00,76.0,68.0,-100.00,South,180,7.0,11.0,76,0.00,,,0.00,854.000000,,2013-07-25 18:33:00,
2013-07-25 13:43:00,76.0,68.0,-100.00,South,180,7.0,11.0,76,0.00,,,0.00,854.000000,,2013-07-25 18:43:00,
2013-07-25 13:52:00,76.0,68.0,-100.00,South,180,7.0,11.0,76,0.00,,,0.00,854.000000,,2013-07-25 18:52:00,
2013-07-25 14:02:00,76.0,68.0,-100.00,South,180,7.0,11.0,76,0.00,,,0.00,854.000000,,2013-07-25 19:02:00,
2013-07-25 14:33:00,76.0,68.0,-100.00,SE,144,7.0,10.0,76,0.00,,,0.00,746.000000,,2013-07-25 19:33:00,
2013-07-25 14:43:00,76.0,68.0,-100.00,SE,144,7.0,10.0,76,0.00,,,0.00,746.000000,,2013-07-25 19:43:00,
2013-07-25 14:53:00,76.0,68.0,-100.00,SE,144,7.0,10.0,76,0.00,,,0.00,746.000000,,2013-07-25 19:53:00,
2013-07-25 15:02:00,76.0,68.0,-100.00,SE,144,7.0,10.0,76,0.00,,,0.00,746.000000,,2013-07-25 20:02:00,
2013-07-25 15:32:00,75.0,67.0,-100.00,South,170,7.0,10.0,76,0.00,,,0.00,452.000000,,2013-07-25 20:32:00,
2013-07-25 15:43:00,75.0,67.0,-100.00,South,170,7.0,10.0,76,0.00,,,0.00,452.000000,,2013-07-25 20:43:00,
2013-07-25 15:54:00,75.0,67.0,-100.00,South,170,7.0,10.0,76,0.00,,,0.00,452.000000,,2013-07-25 20:54:00,
2013-07-25 16:03:00,75.0,67.0,-100.00,South,170,7.0,10.0,76,0.00,,,0.00,452.000000,,2013-07-25 21:03:00,
2013-07-25 16:33:00,76.0,68.0,-100.00,SSE,163,7.0,10.0,76,0.00,,,0.00,476.000000,,2013-07-25 21:33:00,
2013-07-25 16:44:00,76.0,68.0,-100.00,SSE,163,7.0,10.0,76,0.00,,,0.00,476.000000,,2013-07-25 21:44:00,
2013-07-25 16:52:00,76.0,68.0,-100.00,SSE,163,7.0,10.0,76,0.00,,,0.00,476.000000,,2013-07-25 21:52:00,
2013-07-25 17:02:00,76.0,68.0,-100.00,SSE,163,7.0,10.0,76,0.00,,,0.00,476.000000,,2013-07-25 22:02:00,
2013-07-25 17:33:00,77.0,66.0,-100.00,SSE,168,6.0,8.0,70,0.00,,,0.00,540.000000,,2013-07-25 22:33:00,
2013-07-25 17:43:00,77.0,66.0,-100.00,SSE,168,6.0,8.0,70,0.00,,,0.00,540.000000,,2013-07-25 22:43:00,
2013-07-25 17:53:00,77.0,66.0,-100.00,SSE,168,6.0,8.0,70,0.00,,,0.00,540.000000,,2013-07-25 22:53:00,
2013-07-25 18:02:00,77.0,66.0,-100.00,SSE,168,6.0,8.0,70,0.00,,,0.00,540.000000,,2013-07-25 23:02:00,
2013-07-25 18:32:00,76.0,68.0,-100.00,SSE,153,4.0,9.0,76,0.00,,,0.00,345.000000,,2013-07-25 23:32:00,
2013-07-25 18:43:00,76.0,68.0,-100.00,SSE,153,4.0,9.0,76,0.00,,,0.00,345.000000,,2013-07-25 23:43:00,
2013-07-25 18:52:00,76.0,68.0,-100.00,SSE,153,4.0,9.0,76,0.00,,,0.00,345.000000,,2013-07-25 23:52:00,
2013-07-25 19:02:00,76.0,68.0,-100.00,SSE,153,4.0,9.0,76,0.00,,,0.00,345.000000,,2013-07-26 00:02:00,
2013-07-25 19:33:00,75.0,67.0,-100.00,SSE,148,4.0,6.0,76,0.00,,,0.00,157.000000,,2013-07-26 00:33:00,
2013-07-25 19:43:00,75.0,67.0,-100.00,SSE,148,4.0,6.0,76,0.00,,,0.00,157.000000,,2013-07-26 00:43:00,
2013-07-25 19:52:00,75.0,67.0,-100.00,SSE,148,4.0,6.0,76,0.00,,,0.00,157.000000,,2013-07-26 00:52:00,
2013-07-25 20:02:00,75.0,67.0,-100.00,SSE,148,4.0,6.0,76,0.00,,,0.00,157.000000,,2013-07-26 01:02:00,
2013-07-25 20:33:00,73.0,67.0,-100.00,SE,139,6.0,8.0,81,0.00,,,0.00,77.000000,,2013-07-26 01:33:00,
2013-07-25 20:43:00,73.0,67.0,-100.00,SE,139,6.0,8.0,81,0.00,,,0.00,77.000000,,2013-07-26 01:43:00,
2013-07-25 20:52:00,73.0,67.0,-100.00,SE,139,6.0,8.0,81,0.00,,,0.00,77.000000,,2013-07-26 01:52:00,
2013-07-25 21:02:00,73.0,67.0,-100.00,SE,139,6.0,8.0,81,0.00,,,0.00,77.000000,,2013-07-26 02:02:00,
2013-07-25 22:33:00,71.0,64.0,-100.00,SE,142,6.0,10.0,78,-99.99,,,0.00,0.000000,,2013-07-26 03:33:00,
2013-07-25 22:44:00,71.0,64.0,-100.00,SE,142,6.0,10.0,78,-99.99,,,0.00,0.000000,,2013-07-26 03:44:00,
2013-07-25 22:53:00,71.0,64.0,-100.00,SE,142,6.0,10.0,78,-99.99,,,0.00,0.000000,,2013-07-26 03:53:00,
2013-07-25 23:02:00,71.0,64.0,-100.00,SE,142,6.0,10.0,78,-99.99,,,0.00,0.000000,,2013-07-26 04:02:00,
2013-07-25 23:32:00,71.0,63.0,-100.00,SE,128,6.0,11.0,75,0.00,,,0.00,0.000000,,2013-07-26 04:32:00,
2013-07-25 23:43:00,71.0,63.0,-100.00,SE,128,6.0,11.0,75,0.00,,,0.00,0.000000,,2013-07-26 04:43:00,
2013-07-25 23:53:00,71.0,63.0,-100.00,SE,128,6.0,11.0,75,0.00,,,0.00,0.000000,,2013-07-26 04:53:00,